createdAt,value
2023-03-07T00:02:16.210Z,30.90
2023-03-07T00:07:19.165Z,30.80
2023-03-07T00:12:23.384Z,30.90
2023-03-07T00:17:26.348Z,30.90
2023-03-07T00:22:29.158Z,31.00
2023-03-07T00:27:34.675Z,31.00
2023-03-07T00:32:37.535Z,31.00
2023-03-07T00:37:40.432Z,31.10
2023-03-07T00:42:44.617Z,31.00
2023-03-07T00:47:47.436Z,30.90
2023-03-07T00:52:50.284Z,30.90
2023-03-07T00:57:54.468Z,30.90
2023-03-07T01:02:58.126Z,30.90
2023-03-07T01:08:01.126Z,30.90
2023-03-07T01:13:05.829Z,30.90
2023-03-07T01:18:11.029Z,30.90
2023-03-07T01:23:14.050Z,30.90
2023-03-07T01:28:18.216Z,30.90
2023-03-07T01:33:21.073Z,30.90
2023-03-07T01:38:23.981Z,31.00
2023-03-07T01:43:30.585Z,31.00
2023-03-07T01:48:33.637Z,30.90
2023-03-07T01:53:36.510Z,30.80
2023-03-07T01:58:41.012Z,30.80
2023-03-07T02:03:48.130Z,30.80
2023-03-07T02:08:52.161Z,30.80
2023-03-07T02:13:56.354Z,30.80
2023-03-07T02:18:59.235Z,30.80
2023-03-07T02:24:09.128Z,30.90
2023-03-07T02:29:14.108Z,30.80
2023-03-07T02:34:20.021Z,30.80
2023-03-07T02:39:24.638Z,30.80
2023-03-07T02:44:28.834Z,30.80
2023-03-07T02:49:31.819Z,30.70
2023-03-07T02:54:34.670Z,30.70
2023-03-07T02:59:38.885Z,30.70
2023-03-07T03:04:41.753Z,30.80
2023-03-07T03:09:44.617Z,30.80
2023-03-07T03:14:48.941Z,30.80
2023-03-07T03:19:51.841Z,30.80
2023-03-07T03:24:54.667Z,30.80
2023-03-07T03:29:58.838Z,30.80
2023-03-07T03:35:01.726Z,30.80
2023-03-07T03:40:14.085Z,30.80
2023-03-07T03:45:19.443Z,30.80
2023-03-07T03:50:22.259Z,30.80
2023-03-07T03:55:25.059Z,30.80
2023-03-07T04:00:29.346Z,30.70
2023-03-07T04:05:34.391Z,30.80
2023-03-07T04:10:37.191Z,30.80
2023-03-07T04:15:41.313Z,30.80
2023-03-07T04:20:45.863Z,30.80
2023-03-07T04:25:49.263Z,30.80
2023-03-07T04:30:53.490Z,30.90
2023-03-07T04:35:56.353Z,30.80
2023-03-07T04:40:59.257Z,30.90
2023-03-07T04:46:03.917Z,30.90
2023-03-07T04:51:07.528Z,30.90
2023-03-07T04:56:11.253Z,30.80
2023-03-07T05:01:15.570Z,30.90
2023-03-07T05:06:18.454Z,30.90
2023-03-07T05:11:21.291Z,31.00
2023-03-07T05:16:25.481Z,31.00
2023-03-07T05:21:28.306Z,31.00
2023-03-07T05:26:31.202Z,31.00
2023-03-07T05:31:36.237Z,30.90
2023-03-07T05:36:39.124Z,30.80
2023-03-07T05:41:41.940Z,30.80
2023-03-07T05:46:46.113Z,30.80
2023-03-07T05:51:49.019Z,30.80
2023-03-07T05:56:52.045Z,30.80
2023-03-07T06:01:56.193Z,30.80
2023-03-07T06:06:59.774Z,30.80
2023-03-07T06:12:02.674Z,30.80
2023-03-07T06:17:07.156Z,30.80
2023-03-07T06:22:09.969Z,30.90
2023-03-07T06:27:12.816Z,30.90
2023-03-07T06:32:17.047Z,30.90
2023-03-07T06:37:19.901Z,30.90
2023-03-07T06:42:22.725Z,30.80
2023-03-07T06:47:26.931Z,30.80
2023-03-07T06:52:29.752Z,30.90
2023-03-07T06:57:33.917Z,31.20
2023-03-07T07:02:38.307Z,31.10
2023-03-07T07:07:41.218Z,31.30
2023-03-07T07:12:44.174Z,31.30
2023-03-07T07:17:48.301Z,31.40
2023-03-07T07:22:51.248Z,31.40
2023-03-07T07:27:54.070Z,31.60
2023-03-07T07:32:58.308Z,31.70
2023-03-07T07:38:01.280Z,31.70
2023-03-07T07:43:04.231Z,31.70
2023-03-07T07:48:08.486Z,31.50
2023-03-07T07:53:11.483Z,31.40
2023-03-07T07:58:14.317Z,31.40
2023-03-07T08:03:18.643Z,31.30
2023-03-07T08:08:21.720Z,31.30
2023-03-07T08:13:24.594Z,31.30
2023-03-07T08:18:28.805Z,31.30
2023-03-07T08:23:31.641Z,31.90
2023-03-07T08:28:34.525Z,31.30
2023-03-07T08:33:39.312Z,31.30
2023-03-07T08:38:42.143Z,31.30
2023-03-07T08:43:44.986Z,31.30
2023-03-07T08:48:49.151Z,31.30
2023-03-07T08:53:52.040Z,31.40
2023-03-07T08:58:55.139Z,31.40
2023-03-07T09:03:59.348Z,31.30
2023-03-07T09:09:02.174Z,31.20
2023-03-07T09:14:05.011Z,31.20
2023-03-07T09:19:09.216Z,31.20
2023-03-07T09:24:12.059Z,31.20
2023-03-07T09:29:14.887Z,31.20
2023-03-07T09:34:19.103Z,31.20
2023-03-07T09:39:22.014Z,31.20
2023-03-07T09:44:56.052Z,31.30
2023-03-07T09:50:02.127Z,31.30
2023-03-07T09:55:10.468Z,31.30
2023-03-07T10:00:21.466Z,31.30
2023-03-07T10:05:32.594Z,31.30
2023-03-07T10:10:40.699Z,31.10
2023-03-07T10:15:46.685Z,31.00
2023-03-07T10:20:53.954Z,30.90
2023-03-07T10:26:02.789Z,30.90
2023-03-07T10:31:17.104Z,30.90
2023-03-07T10:36:23.056Z,30.90
2023-03-07T10:41:26.065Z,30.90
2023-03-07T10:46:30.921Z,30.90
2023-03-07T10:51:51.657Z,31.00
2023-03-07T10:57:09.356Z,31.00
2023-03-07T11:02:33.534Z,31.00
2023-03-07T11:07:37.971Z,30.90
2023-03-07T11:12:46.955Z,31.00
2023-03-07T11:17:50.798Z,30.90
2023-03-07T11:23:15.833Z,31.00
2023-03-07T11:28:28.567Z,31.00
2023-03-07T11:33:58.699Z,30.90
2023-03-07T11:39:11.241Z,31.00
2023-03-07T11:44:26.808Z,31.00
2023-03-07T11:49:44.284Z,31.00
2023-03-07T11:54:58.439Z,31.10
2023-03-07T12:00:18.762Z,31.00
2023-03-07T12:05:52.924Z,31.10
2023-03-07T12:11:08.538Z,31.10
2023-03-07T12:16:24.107Z,31.20
2023-03-07T12:21:43.554Z,31.20
2023-03-07T12:26:54.568Z,31.30
2023-03-07T12:32:00.834Z,31.30
2023-03-07T12:37:07.880Z,31.40
2023-03-07T12:42:18.593Z,31.80
2023-03-07T12:47:28.443Z,31.30
2023-03-07T12:52:39.965Z,31.30
2023-03-07T12:57:50.818Z,31.30
2023-03-07T13:03:01.562Z,31.30
2023-03-07T13:08:06.719Z,31.30
2023-03-07T13:13:43.306Z,31.30
2023-03-07T13:18:47.485Z,31.30
2023-03-07T13:23:50.499Z,31.30
2023-03-07T13:28:53.526Z,31.30
2023-03-07T13:33:58.073Z,31.30
2023-03-07T13:39:01.129Z,31.30
2023-03-07T13:44:04.626Z,31.30
2023-03-07T13:49:09.106Z,31.40
2023-03-07T13:54:14.734Z,31.40
2023-03-07T13:59:28.128Z,31.70
2023-03-07T14:04:44.774Z,31.60
2023-03-07T14:09:50.810Z,31.60
2023-03-07T14:15:07.896Z,31.60
2023-03-07T14:20:19.882Z,31.50
2023-03-07T14:25:25.302Z,31.40
2023-03-07T14:30:30.704Z,31.40
2023-03-07T14:35:37.235Z,31.30
2023-03-07T14:40:53.200Z,31.30
2023-03-07T14:46:05.468Z,31.20
2023-03-07T14:51:15.162Z,31.30
2023-03-07T14:56:23.366Z,31.30
2023-03-07T15:01:31.623Z,31.30
2023-03-07T15:06:44.074Z,31.30
2023-03-07T15:11:55.004Z,31.20
2023-03-07T15:17:03.108Z,31.20
2023-03-07T15:22:15.081Z,31.20
2023-03-07T15:27:23.093Z,31.30
2023-03-07T15:32:35.924Z,31.30
2023-03-07T15:37:52.687Z,31.40
2023-03-07T15:42:57.068Z,31.40
2023-03-07T15:48:03.423Z,31.50
2023-03-07T15:53:10.387Z,31.40
2023-03-07T15:58:15.511Z,31.40
2023-03-07T16:03:25.875Z,31.40
2023-03-07T16:08:30.243Z,31.40
2023-03-07T16:13:38.452Z,31.40
2023-03-07T16:18:41.934Z,31.40
2023-03-07T16:23:46.928Z,31.40
2023-03-07T16:28:50.210Z,31.40
2023-03-07T16:33:54.452Z,31.40
2023-03-07T16:38:58.627Z,31.40
2023-03-07T16:44:02.611Z,31.60
2023-03-07T16:49:05.449Z,31.50
2023-03-07T16:54:09.846Z,31.20
2023-03-07T16:59:15.341Z,30.90
2023-03-07T17:04:19.018Z,30.60
2023-03-07T17:09:23.180Z,30.50
2023-03-07T17:14:26.126Z,30.50
2023-03-07T17:19:30.615Z,30.50
2023-03-07T17:24:34.796Z,30.30
2023-03-07T17:29:41.836Z,30.00
2023-03-07T17:34:44.719Z,29.60
2023-03-07T17:39:48.890Z,29.70
2023-03-07T17:44:51.713Z,29.70
2023-03-07T17:49:54.546Z,29.50
2023-03-07T17:54:58.761Z,29.20
2023-03-07T18:00:01.609Z,29.00
2023-03-07T18:05:04.623Z,28.80
2023-03-07T18:10:10.791Z,28.70
2023-03-07T18:15:16.435Z,29.10
2023-03-07T18:20:21.422Z,29.40
2023-03-07T18:25:25.879Z,29.30
2023-03-07T18:30:29.207Z,29.10
2023-03-07T18:35:33.200Z,29.40
2023-03-07T18:40:37.426Z,29.10
2023-03-07T18:45:43.414Z,29.10
2023-03-07T18:50:55.489Z,29.10
2023-03-07T18:56:03.586Z,29.30
2023-03-07T19:01:14.660Z,29.10
2023-03-07T19:06:19.616Z,29.30
2023-03-07T19:11:23.786Z,29.40
2023-03-07T19:16:28.550Z,29.40
2023-03-07T19:21:32.170Z,29.50
2023-03-07T19:26:36.374Z,29.50
2023-03-07T19:31:39.282Z,29.60
2023-03-07T19:36:42.617Z,29.50
2023-03-07T19:41:47.985Z,29.50
2023-03-07T19:46:50.860Z,29.70
2023-03-07T19:51:53.844Z,29.80
2023-03-07T19:56:58.232Z,29.70
2023-03-07T20:02:01.045Z,29.50
2023-03-07T20:07:03.912Z,29.60
2023-03-07T20:12:10.051Z,29.80
2023-03-07T20:17:13.638Z,30.20
2023-03-07T20:22:17.530Z,30.00
2023-03-07T20:27:23.410Z,30.00
2023-03-07T20:32:26.419Z,29.80
2023-03-07T20:37:32.323Z,30.00
2023-03-07T20:42:36.519Z,30.10
2023-03-07T20:47:39.384Z,30.30
2023-03-07T20:52:42.254Z,30.40
2023-03-07T20:57:46.434Z,30.30
2023-03-07T21:02:56.875Z,30.40
2023-03-07T21:08:09.820Z,30.10
2023-03-07T21:13:14.021Z,30.00
2023-03-07T21:18:16.868Z,30.10
2023-03-07T21:23:20.308Z,30.00
2023-03-07T21:28:24.690Z,30.00
2023-03-07T21:33:27.876Z,30.00
2023-03-07T21:38:31.230Z,30.00
2023-03-07T21:43:35.515Z,30.00
2023-03-07T21:48:38.811Z,30.00
2023-03-07T21:53:41.914Z,30.00
2023-03-07T21:58:48.862Z,30.10
2023-03-07T22:03:53.371Z,30.00
2023-03-07T22:08:56.315Z,30.00
2023-03-07T22:14:00.471Z,30.10
2023-03-07T22:19:03.350Z,30.00
2023-03-07T22:24:06.534Z,29.90
2023-03-07T22:29:10.701Z,30.00
2023-03-07T22:34:13.535Z,30.00
2023-03-07T22:39:16.377Z,30.00
2023-03-07T22:44:20.697Z,30.00
2023-03-07T22:49:23.568Z,30.00
2023-03-07T22:54:26.691Z,30.00
2023-03-07T22:59:30.847Z,30.00
2023-03-07T23:04:33.757Z,30.00
2023-03-07T23:09:36.601Z,30.00
2023-03-07T23:14:40.760Z,30.00
2023-03-07T23:19:43.595Z,30.00
2023-03-07T23:24:46.553Z,30.10
2023-03-07T23:29:50.745Z,30.10
2023-03-07T23:34:53.786Z,30.10
2023-03-07T23:39:58.380Z,30.10
2023-03-07T23:45:02.630Z,30.10
2023-03-07T23:50:06.589Z,30.20
2023-03-07T23:55:10.492Z,30.20
